Hundvaag 1 weather for Mar 2009
Month no. 261
Obs.
Da.
Temp. Dew Point Precip. Wind
Speed
Wind gusts Cloud cover Press. Humidity Wind dir. Sunny OPT
01.03.2009 4,6 1,5 0,0 6,4 12,9 0 1008,0 84,0 135,0   55,0 %
02.03.2009 3,9 2,3 2,0 4,8 4,8 2 1007,7 89,0 180,0 1 60,0 %
03.03.2009 3,8 2,6 6,7 11,9 7,4 8 1005,0 92,0 202,5 1 65,0 %
04.03.2009 5,6 2,6 2,7 16,1 17,7 7 994,5 81,0 180,0 1 67,5 %
05.03.2009 7,8 -0,2 0,0 9,7 9,7 7 998,5 57,0 112,5 1 75,0 %
06.03.2009 3,2 1,1 6,5 0,0 0,0 0 1004,6 86,0 247,5   52,5 %
07.03.2009 2,1 -0,2 7,2 9,7 9,7 3 1007,7 85,0 135,0 1 52,5 %
08.03.2009 3,8 2,2 8,6 27,4 33,8 0 987,4 89,0 180,0 1 35,0 %
09.03.2009 3,6 2,1 13,0 11,3 16,1 2 991,4 90,0 157,5 1 45,0 %
10.03.2009 3,5 1,6 5,3 1,6 11,3 1 1002,6 89,0 157,5   57,5 %
11.03.2009 -0,1 -1,2 0,2 1,6 1,6 8 1017,2 92,0 247,5 1 72,5 %
12.03.2009 3,7 1,6 4,6 16,1 24,1 1 1010,4 86,0 157,5 1 47,5 %
13.03.2009 4,7 3,5 6,5 0,0 1,6 2 1014,1 92,0 270,0   57,5 %
14.03.2009 4,4 2,7 0,7 1,6 3,2 1 1013,4 89,0 157,5   60,0 %
15.03.2009 5,5 3,0 0,1 3,2 3,2 1 1020,5 84,0 270,0   62,5 %
16.03.2009 6,2 4,8 1,5 0,0 0,0 1 1028,3 91,0 270,0   62,5 %
17.03.2009 4,3 2,8 8,9 11,3 22,5 8 1029,7 90,0 270,0 1 65,0 %
18.03.2009 6,1 5,2 0,0 1,6 0,0 5 1033,7 94,0 180,0 1 72,5 %
19.03.2009 0,7 -0,4 0,0 0,0 0,0 10 1035,4 92,0 225,0 1 80,0 %
20.03.2009 0,6 -0,7 0,0 1,9 2,1 10 1036,8 91,0 112,5 1 80,0 %
21.03.2009 4,4 0,9 0,0 7,4 7,4 1 1029,0 78,0 0,0 1 55,0 %
22.03.2009 4,7 3,3 0,4 5,0 5,0 0 1020,5 91,0 292,5 1 55,0 %
23.03.2009 1,9 0,2 2,0 0,0 2,6 1 999,2 92,0 225,0 1 57,5 %
24.03.2009 1,7 -2,3 1,8 1,6 3,2 10 1010,0 75,0 292,5 1 80,0 %
25.03.2009 2,2 -2,7 2,0 9,3 9,3 10 999,2 70,0 135,0 1 75,0 %
26.03.2009 1,6 -4,5 0,0 14,8 14,8 3 1002,3 64,0 112,5 1 52,5 %
27.03.2009 2,1 -2,4 0,0 18,5 18,5 3 987,7 72,0 112,5 1 50,0 %
28.03.2009 3,2 -1,6 0,0 5,6 5,6 10 996,5 71,0 22,5 1 80,0 %
29.03.2009 1,5 -1,1 0,0 3,7 3,7 10 1008,7 83,0 270,0 1 77,5 %
30.03.2009 4,6 1,9 0,0 25,9 25,9 10 1010,4 83,0 135,0 1 65,0 %
31.03.2009 5,3 3,9 5,5 2,1 2,1 0 1016,8 91,0 180,0   57,5 %
Avrg/Sum 3,6 1,0 86,2 7,4 9,0 4,4 1010,6 84,3 181,5 23 62,3 %